PASIPAFE

Guest
Details From PASI - SITKA ROCKY GUTIERREZ
To PAFE - KAKE
Flight Number -
Tags generated
Created
Modified
Stats Distance 48 nm / 89 km
Max Altitude 4,300 ft / 1,311 m
Waypoints 3
Social Downloads 1
Likes 0
Share VATSIM

Download

Looking for another format? Having issues loading an existing format? Contact us
Advertisement - Login to hide

Notes

Basic altitude profile: - Ascent Rate: 2500ft/min - Ascent Speed: 250kts - Cruise Altitude: 35000ft - Cruise Speed: 420kts - Descent Rate: 1500ft/min - Descent Speed: 250kts Options: - Use NATs: yes - Use PACOTS: yes - Use low airways: yes - Use high airways: yes

Route

PASI 5700N13500W PAFE

ID Type Via Altitude Latitude Longitude Leg Dist Tot Dist Heading (true) Name
O PASI APT - 0 ft / 0 m 57.04713˚ -135.36160˚ - 0 nm - SITKA ROCKY GUTIERREZ
5700N13500W LATLON - 4,300 ft / 1,311 m 57.00000˚ -135.00000˚ 12 nm 12 nm 103° / 104° -
O PAFE APT - 0 ft / 0 m 56.96136˚ -133.91026˚ 35 nm 47 nm 93° / 94° KAKE

Altitude Profile

Advertisement - Login to hide

PASI

Details ICAO PASI (SIT)
Name SITKA ROCKY GUTIERREZ
Region USA (Alaska)
Timezone America/Juneau (UTC-9.0)
Stats Elevation 21 ft / 6 m (AMSL)
Location 57.047128° -135.361597°
Runways 1
Magnetic Variation 18.749° E

METAR

PASI 180853Z 10007KT 10SM FEW029 SCT039 02/01 A2977

Decode

TAF

PASI 180825Z 1808/1906 10006KT P6SM VCSH SCT025 OVC040 TEMPO 1808/1812 6SM -SHRA BR BKN015 OVC025 FM181400 09005KT P6SM VCSH SCT015 OVC050

Decode

Departure Runways

ID Width Length Bearing (true) Bearing (mag) Surface Threshold Offset Overrun Length
11 150 ft / 46 m 6,485 ft / 1,977 m 135.57° 116.82° Asphalt 0 ft / 0 m 0 ft / 0 m
29 150 ft / 46 m 6,485 ft / 1,977 m 315.59° 296.84° Asphalt 0 ft / 0 m 0 ft / 0 m

PAFE

Details ICAO PAFE (AFE)
Name KAKE
Region USA (Alaska)
Timezone America/Juneau (UTC-9.0)
Stats Elevation 172 ft / 52 m (AMSL)
Location 56.961362° -133.910261°
Runways 1
Magnetic Variation 18.848° E

METAR

PAFE 180856Z AUTO 08006KT 10SM CLR 01/01 A2981 RMK AO2 SLP108 T00110006 400330000 53015 FZRANO

Decode

TAF

Not found

Destination Runways

ID Width Length Bearing (true) Bearing (mag) Surface Threshold Offset Overrun Length
10 100 ft / 30 m 3,990 ft / 1,216 m 129.93° 111.08° Asphalt 0 ft / 0 m 295 ft / 90 m
28 100 ft / 30 m 3,990 ft / 1,216 m 309.94° 291.09° Asphalt 1,000 ft / 305 m 295 ft / 90 m

Popular Alternatives